createdAt,value
2023-04-08T00:00:20.673Z,61249.84
2023-04-08T00:05:24.786Z,61310.38
2023-04-08T00:10:27.413Z,61288.78
2023-04-08T00:15:31.066Z,61281.44
2023-04-08T00:20:35.419Z,61290.59
2023-04-08T00:25:38.007Z,61268.16
2023-04-08T00:30:40.673Z,61278.03
2023-04-08T00:35:44.653Z,61218.84
2023-04-08T00:40:47.334Z,61237.53
2023-04-08T00:45:50.309Z,61255.50
2023-04-08T00:50:54.383Z,61237.09
2023-04-08T00:55:57.064Z,61232.41
2023-04-08T01:01:06.713Z,61261.78
2023-04-08T01:06:16.698Z,61259.97
2023-04-08T01:11:21.379Z,61232.56
2023-04-08T01:16:27.200Z,61295.63
2023-04-08T01:21:31.317Z,61248.06
2023-04-08T01:26:36.456Z,61237.72
2023-04-08T01:31:40.401Z,61200.88
2023-04-08T01:36:45.485Z,61193.97
2023-04-08T01:41:50.006Z,61212.75
2023-04-08T01:46:54.118Z,61198.94
2023-04-08T01:51:59.712Z,61180.69
2023-04-08T01:57:09.705Z,61182.13
2023-04-08T02:02:14.159Z,61180.91
2023-04-08T02:07:17.959Z,61176.25
2023-04-08T02:12:21.878Z,61141.19
2023-04-08T02:17:30.958Z,61145.03
2023-04-08T02:22:39.980Z,61146.91
2023-04-08T02:27:45.428Z,61165.84
2023-04-08T02:32:48.770Z,61151.38
2023-04-08T02:37:51.615Z,61130.09
2023-04-08T02:42:56.506Z,61133.19
2023-04-08T02:48:00.743Z,61118.06
2023-04-08T02:53:03.464Z,61115.28
2023-04-08T02:58:07.392Z,61113.16
2023-04-08T03:03:10.086Z,61167.84
2023-04-08T03:08:12.740Z,61103.97
2023-04-08T03:13:16.889Z,61106.13
2023-04-08T03:18:19.462Z,61116.59
2023-04-08T03:23:21.990Z,61094.97
2023-04-08T03:28:25.879Z,61101.53
2023-04-08T03:33:28.553Z,61075.69
2023-04-08T03:38:31.143Z,61085.84
2023-04-08T03:43:36.757Z,61058.00
2023-04-08T03:48:40.489Z,61034.91
2023-04-08T03:53:43.017Z,61085.56
2023-04-08T03:58:47.978Z,61040.53
2023-04-08T04:03:50.775Z,61084.50
2023-04-08T04:08:54.789Z,61053.78
2023-04-08T04:13:58.656Z,61057.84
2023-04-08T04:19:01.342Z,61092.97
2023-04-08T04:24:04.024Z,61047.91
2023-04-08T04:29:07.893Z,61080.63
2023-04-08T04:34:10.413Z,61046.91
2023-04-08T04:39:13.017Z,61051.97
2023-04-08T04:44:17.004Z,61051.09
2023-04-08T04:49:19.584Z,61021.34
2023-04-08T04:54:22.217Z,61087.97
2023-04-08T04:59:26.239Z,61076.75
2023-04-08T05:04:28.814Z,61037.38
2023-04-08T05:09:31.641Z,61090.22
2023-04-08T05:14:35.751Z,61061.25
2023-04-08T05:19:38.278Z,61081.59
2023-04-08T05:24:41.007Z,61112.03
2023-04-08T05:29:44.940Z,61137.13
2023-04-08T05:34:47.509Z,61158.50
2023-04-08T05:39:50.050Z,61214.34
2023-04-08T05:44:53.928Z,61238.63
2023-04-08T05:49:56.754Z,61222.31
2023-04-08T05:54:59.305Z,61242.91
2023-04-08T06:00:03.367Z,61288.59
2023-04-08T06:05:06.768Z,61275.28
2023-04-08T06:10:10.144Z,61299.56
2023-04-08T06:15:14.048Z,61331.16
2023-04-08T06:20:16.616Z,61358.94
2023-04-08T06:25:19.386Z,61400.03
2023-04-08T06:30:23.677Z,61445.97
2023-04-08T06:35:26.273Z,61447.34
2023-04-08T06:40:29.000Z,61544.47
2023-04-08T06:45:32.988Z,61638.94
2023-04-08T06:50:35.974Z,61856.16
2023-04-08T06:55:38.576Z,61925.88
2023-04-08T07:00:43.099Z,61796.06
2023-04-08T07:05:45.711Z,61707.03
2023-04-08T07:10:48.296Z,61651.47
2023-04-08T07:15:53.454Z,61680.84
2023-04-08T07:20:56.495Z,61678.81
2023-04-08T07:26:03.478Z,61714.53
2023-04-08T07:31:16.041Z,61695.25
2023-04-08T07:36:18.785Z,61712.22
2023-04-08T07:41:21.660Z,61685.34
2023-04-08T07:46:25.676Z,61687.22
2023-04-08T07:51:29.066Z,61719.91
2023-04-08T07:56:31.681Z,61770.47
2023-04-08T08:01:35.983Z,61794.06
2023-04-08T08:06:38.588Z,61825.91
2023-04-08T08:11:41.280Z,61800.91
2023-04-08T08:16:45.553Z,61820.13
2023-04-08T08:21:48.207Z,61904.38
2023-04-08T08:26:51.142Z,61908.31
2023-04-08T08:31:55.119Z,61921.38
2023-04-08T08:36:58.375Z,62038.25
2023-04-08T08:42:01.374Z,62222.50
2023-04-08T08:47:06.410Z,62394.47
2023-04-08T08:52:09.277Z,62619.59
2023-04-08T08:57:18.574Z,62607.38
2023-04-08T09:02:29.028Z,62530.50
2023-04-08T09:07:37.380Z,62265.34
2023-04-08T09:12:55.398Z,62175.47
2023-04-08T09:17:59.597Z,62324.50
2023-04-08T09:23:03.591Z,62419.28
2023-04-08T09:28:06.559Z,62563.72
2023-04-08T09:33:10.720Z,62682.66
2023-04-08T09:38:13.279Z,62731.47
2023-04-08T09:43:19.327Z,62670.91
2023-04-08T09:48:28.797Z,62671.28
2023-04-08T09:53:36.285Z,62553.06
2023-04-08T09:58:43.880Z,62441.44
2023-04-08T10:03:52.030Z,62395.44
2023-04-08T10:08:55.593Z,62292.56
2023-04-08T10:13:58.196Z,62261.41
2023-04-08T10:19:02.169Z,62289.28
2023-04-08T10:24:08.562Z,62324.19
2023-04-08T10:29:33.720Z,62363.06
2023-04-08T10:34:53.806Z,62344.63
2023-04-08T10:39:56.345Z,62361.63
2023-04-08T10:45:03.285Z,62430.69
2023-04-08T10:50:15.803Z,62457.72
2023-04-08T10:55:24.516Z,62568.38
2023-04-08T11:00:35.377Z,62663.34
2023-04-08T11:05:40.210Z,62610.09
2023-04-08T11:10:45.020Z,62484.81
2023-04-08T11:15:47.734Z,62446.19
2023-04-08T11:20:53.788Z,62457.72
2023-04-08T11:25:56.990Z,62567.91
2023-04-08T11:31:00.510Z,62665.66
2023-04-08T11:36:05.275Z,62625.78
2023-04-08T11:41:07.982Z,62635.72
2023-04-08T11:46:11.697Z,62829.72
2023-04-08T11:51:17.343Z,62713.19
2023-04-08T11:56:22.564Z,62768.22
2023-04-08T12:01:25.754Z,63038.34
2023-04-08T12:06:31.691Z,63582.72
2023-04-08T12:11:34.395Z,62772.03
2023-04-08T12:16:37.503Z,62889.25
2023-04-08T12:21:41.511Z,62664.41
2023-04-08T12:26:44.060Z,62607.78
2023-04-08T12:31:46.665Z,62600.28
2023-04-08T12:36:50.684Z,62511.81
2023-04-08T12:41:53.297Z,62451.75
2023-04-08T12:46:56.162Z,62425.66
2023-04-08T12:52:00.129Z,62496.78
2023-04-08T12:57:02.955Z,62522.75
2023-04-08T13:02:05.812Z,62645.19
2023-04-08T13:07:11.143Z,62779.44
2023-04-08T13:12:14.464Z,62688.69
2023-04-08T13:17:17.025Z,62752.19
2023-04-08T13:22:21.080Z,62751.84
2023-04-08T13:27:23.686Z,62695.69
2023-04-08T13:32:26.286Z,62642.50
2023-04-08T13:37:30.264Z,62763.28
2023-04-08T13:42:33.015Z,62768.25
2023-04-08T13:47:37.642Z,62796.94
2023-04-08T13:52:42.103Z,62662.22
2023-04-08T13:57:44.710Z,62657.69
2023-04-08T14:02:47.418Z,62638.38
2023-04-08T14:07:51.396Z,62622.88
2023-04-08T14:12:54.382Z,62567.31
2023-04-08T14:17:57.060Z,62577.66
2023-04-08T14:23:01.030Z,62558.88
2023-04-08T14:28:03.589Z,62569.13
2023-04-08T14:33:06.434Z,62563.22
2023-04-08T14:38:10.533Z,62479.78
2023-04-08T14:43:13.620Z,62489.88
2023-04-08T14:48:16.165Z,62559.56
2023-04-08T14:53:20.085Z,62550.75
2023-04-08T14:58:22.929Z,62531.16
2023-04-08T15:03:25.710Z,62553.34
2023-04-08T15:08:29.916Z,62607.03
2023-04-08T15:13:32.529Z,62574.81
2023-04-08T15:18:36.242Z,62502.97
2023-04-08T15:23:42.021Z,62528.19
2023-04-08T15:28:44.649Z,62459.41
2023-04-08T15:33:48.749Z,62449.31
2023-04-08T15:38:53.090Z,62419.81
2023-04-08T15:43:56.171Z,62448.44
2023-04-08T15:49:00.229Z,62398.91
2023-04-08T15:54:05.375Z,62401.78
2023-04-08T15:59:07.965Z,62330.59
2023-04-08T16:04:10.802Z,62366.59
2023-04-08T16:09:14.777Z,62334.00
2023-04-08T16:14:17.384Z,62310.22
2023-04-08T16:19:22.200Z,62329.03
2023-04-08T16:24:26.446Z,62290.19
2023-04-08T16:29:29.013Z,62304.03
2023-04-08T16:34:31.863Z,62287.63
2023-04-08T16:39:35.814Z,62296.81
2023-04-08T16:44:38.419Z,62123.16
2023-04-08T16:49:40.990Z,62169.63
2023-04-08T16:54:46.101Z,62170.59
2023-04-08T16:59:48.678Z,62166.59
2023-04-08T17:04:52.369Z,62111.50
2023-04-08T17:09:56.307Z,62106.06
2023-04-08T17:14:59.045Z,62129.50
2023-04-08T17:20:01.721Z,62104.91
2023-04-08T17:25:06.614Z,62105.63
2023-04-08T17:30:11.471Z,62099.69
2023-04-08T17:35:14.323Z,62098.72
2023-04-08T17:40:18.653Z,62099.94
2023-04-08T17:45:21.356Z,62023.53
2023-04-08T17:50:25.462Z,62065.56
2023-04-08T17:55:29.617Z,62018.50
2023-04-08T18:00:32.129Z,62046.81
2023-04-08T18:05:34.681Z,62007.09
2023-04-08T18:10:39.175Z,61963.00
2023-04-08T18:15:42.078Z,61970.00
2023-04-08T18:20:44.641Z,61998.13
2023-04-08T18:25:50.092Z,61974.97
2023-04-08T18:30:53.515Z,61981.53
2023-04-08T18:35:57.071Z,61963.69
2023-04-08T18:41:03.125Z,61956.34
2023-04-08T18:46:05.849Z,61931.94
2023-04-08T18:51:08.728Z,61941.13
2023-04-08T18:56:17.281Z,61951.53
2023-04-08T19:01:19.880Z,61954.53
2023-04-08T19:06:22.807Z,61934.38
2023-04-08T19:11:28.893Z,61934.75
2023-04-08T19:16:31.542Z,61943.56
2023-04-08T19:21:37.597Z,61925.78
2023-04-08T19:26:41.606Z,61947.09
2023-04-08T19:31:44.324Z,61960.16
2023-04-08T19:36:47.838Z,61951.09
2023-04-08T19:41:51.695Z,61919.97
2023-04-08T19:46:54.660Z,61910.59
2023-04-08T19:51:58.495Z,61947.44
2023-04-08T19:57:02.546Z,61952.69
2023-04-08T20:02:05.257Z,61961.91
2023-04-08T20:07:08.066Z,61919.28
2023-04-08T20:12:12.094Z,61897.91
2023-04-08T20:17:15.466Z,61906.75
2023-04-08T20:22:18.488Z,61905.00
2023-04-08T20:27:22.441Z,61906.72
2023-04-08T20:32:25.105Z,61910.78
2023-04-08T20:37:28.635Z,61935.28
2023-04-08T20:42:32.455Z,61911.91
2023-04-08T20:47:35.134Z,61913.97
2023-04-08T20:52:37.833Z,61913.03
2023-04-08T20:57:44.254Z,61937.94
2023-04-08T21:02:47.718Z,61909.84
2023-04-08T21:07:50.531Z,61941.53
2023-04-08T21:12:54.525Z,61957.66
2023-04-08T21:17:57.199Z,61917.16
2023-04-08T21:23:00.460Z,61929.13
2023-04-08T21:28:04.434Z,61931.25
2023-04-08T21:33:07.126Z,61928.09
2023-04-08T21:38:09.760Z,61902.63
2023-04-08T21:43:13.691Z,61952.47
2023-04-08T21:48:17.213Z,61936.34
2023-04-08T21:53:20.597Z,61911.44
2023-04-08T21:58:24.560Z,61927.53
2023-04-08T22:03:27.579Z,61873.00
2023-04-08T22:08:32.378Z,61935.22
2023-04-08T22:13:36.393Z,61912.31
2023-04-08T22:18:39.026Z,61896.72
2023-04-08T22:23:42.110Z,61920.06
2023-04-08T22:28:46.012Z,61937.09
2023-04-08T22:33:48.608Z,61887.22
2023-04-08T22:38:51.184Z,61906.88
2023-04-08T22:43:55.580Z,61921.41
2023-04-08T22:48:58.145Z,61890.19
2023-04-08T22:54:01.026Z,61900.97
2023-04-08T22:59:04.918Z,61887.53
2023-04-08T23:04:07.567Z,61890.53
2023-04-08T23:09:10.263Z,61891.94
2023-04-08T23:14:14.180Z,61888.81
2023-04-08T23:19:16.762Z,61900.84
2023-04-08T23:24:19.350Z,61911.63
2023-04-08T23:29:23.374Z,61903.91
2023-04-08T23:34:26.042Z,61872.28
2023-04-08T23:39:30.829Z,61907.53
2023-04-08T23:44:34.762Z,61890.31
2023-04-08T23:49:37.325Z,61875.28
2023-04-08T23:54:40.338Z,61873.38
2023-04-08T23:59:44.256Z,61876.50
